Montrose, Colorado
Current Conditions -  °F | °C
As of 6:53 PM on Monday 24 Nov 2014 (Local Time) from KMTJ Reporting Station
Scattered Clouds Scattered Clouds  
Wind Chill: -6°   Ceiling: Unl
Heat Index: -3°   Visibility: 10mi
Dew Point: -6°   Wind: 5mph
Humidity: 78%   Direction: 140°SE
Pressure: 30.34"   Gusts: NA
Location:  38.48°N, 107.87°W
Report Text: KMTJ 250153Z AUTO 14004KT 10SM SCT080 M03/M06 A3034 RMK AO2 SLP293 T10281061
Loading
Personal Weather Stations






























Interactive Weather Map New forecast layout! Learn more

10-Day Weather Forecast

Advertisements
Track Severe Weather on mobile